Espace membre
Imprimable
Challenges > Delhalle - Dinant, 27/08/2006, BEL - La Descente de la Lesse
Liste des rapports > Delhalle - 23,5km - Classement scratch
Recherche: Page: [1]
141 Entrées
 
Les réclamations ne sont plus acceptées, les résultats sont considérés comme définitifs.
RangNrNomAgeIOCLigueEquipeRéelTempsTkmMoy.ScrPtsLocalité
1.48DUPONT Eddy37BELONHOXY20001:22:361:22:373:31 17.0711135ECAUSSINNES
2.2439VAN REUSEL Jérôme32BELESM1:23:291:23:303:34 16.8921123LOBBES
3.2580DEKEYSER Jonathan25BEL1:24:271:24:323:36 16.6831110
4.1134VANDERBECK Yves38BELRIWARONVAU1:24:431:24:453:37 16.6441106MALONNE
5.9DEVEIRMAN Didier26BELCSFTRAINING 71:26:481:26:493:42 16.2451080BEERSEL
6.2325HUNTER Trevor37GBRHANDY CROSS RUNNERS1:29:291:29:323:49 15.75910453ED
7.2263DE ROMREE Ghislain30BELCSDY1:31:031:31:053:53 15.48111026COURT-ST-ETIENNE
8.1529LOMBART Frederic39BEL1:32:181:32:213:56 15.27141010GEMBLOUX
9.2285ELLEBOUDT Guillaume31FRAJ C HERZEELE1:32:491:32:523:58 15.18151003HOUTKERQUE
10.804DILIBERTO Antonino39BELJOGGPLUS1:32:581:33:003:58 15.16161001CRISNEE
11.149SOHNLE Erich26BELONHTORTUES1:33:421:33:434:00 15.0520991CHAUSSEE-NOTRE-DAME
12.2282DUBOIS Jean-Philippe27BELJ.E.T.1:35:251:35:274:04 14.7724969JAMBES
13.2554VERTE Patrick29BELAC DAMP1:35:561:36:014:06 14.6826962BECKERICH
14.2307GRANDJEAN Pierre31BEL1:36:421:36:464:08 14.5729952EREZÉE
15.679MORONE Yves39BELRCNAMUR1:37:061:37:114:09 14.5131947HAMOIS
16.2299GHYSELINCK Gunther35BELRUN FOR FUN1:38:101:38:154:11 14.3534934ZOTTEGEM
17.2029VERRUE Vincent30BELWALCOURSE1:39:351:39:414:15 14.1440915WALCOURT
18.297BOUCHAT Albert39BELJOGGPLUS1:40:101:40:194:17 14.0642908MEUX
19.2400PRANCKL Michael33BELARCH1:40:431:40:464:18 13.9943902UCCLE
20.2487OUBOUSKOUR Brahim36BEL1:41:191:41:364:20 13.8848893JUMET
21.2440VANCASTER Pierre33BELNAC1:41:461:41:524:21 13.8449887ECAUSSINNES
22.2237CASTERMANS David35BELOCANVO2NAMUR1:43:001:43:004:23 13.6953873RHISNES
23.1814DE CRAEMER Gilbert39BEL1:43:031:43:094:24 13.6755871
24.292BLONDEAUX Yannick30BELWALCOURT1:43:191:43:264:25 13.6357867THY LE CHÂTEAU
25.2239CELLIER Thierry34BEL1:43:281:43:304:25 13.6259865BEAUVECHAIN
26.2383MORVAN Jean-Gael31FRATOULOUSE1:43:231:43:384:25 13.6160865TOULOUSE
27.2009DUPRET Didier39BELBAC1:43:401:43:464:25 13.5961862CHERCQ
28.2425SPARACIO Bruno33BEL1:44:101:44:114:26 13.5363856TAMINES
29.2306GRANDJEAN Benoit38BEL1:44:271:44:364:28 13.4868850PROFONDEVILLE
30.327CANTELLA Massimo33BEL1:44:331:44:384:28 13.4869849
31.2452WEISS Christophe39FRAVOSGIRUNNERS1:44:371:44:454:28 13.4674846NIEDERBRONN
32.228MARCHAL Yves36BELRUN WILD1:44:441:44:494:28 13.4575844VEDRIN
33.1650NEYMAN Eric38BEL1:45:221:45:344:30 13.3681835HERON
34.232VANDENBROECK Tom28BELDCLA1:45:301:45:354:30 13.3582833
35.2483ROBIN Julien22BEL1:45:591:46:014:31 13.3087825
36.219DEWIT Raymond36BELAMAY1:45:581:46:084:31 13.2989825WANZE
37.1069DUTRIEUX Fernand35BELVELAINES1:46:261:46:284:32 13.2497816BAUDOUR
38.2446VANRIE Pierre39BEL1:46:421:46:504:33 13.20100812BRUXELLES
39.2215BATEMAN James39GBRHANDY CROSS RUNNERS1:46:431:47:024:34 13.171018111TN
40.314LEROY Patrick35BEL1:48:521:49:194:40 12.90114783MARBEHAN
41.2371MARTHOZ Pascal37BELCEPAL1:50:081:50:164:42 12.79124766IXELLES
42.1867RUELLE Jean34BELETCHIEVR1:50:151:50:214:42 12.78126764WEZEMBEEK-OPPEM
43.727LEUS Stefan39BEL1:50:331:50:504:43 12.72131759HOLSBEEK
44.2028VERHEYEN Cédric28BEL1:50:571:51:044:44 12.70133754ON
45.2556LEMAIRE Eric39BEL1:50:491:51:134:44 12.68134754
46.378BLAUWART Emmanuel38BELETCHIEVR1:51:181:51:344:45 12.64139747HERCHIES
47.2353KAYE Paul37BEL1:51:131:52:014:46 12.59142746BRUXELLES
48.404TILBURGS Frank39BELAVN1:52:351:52:524:49 12.49148730MEER
49.2223BODSON Dominique35BEL1:52:541:53:064:49 12.47151726GRAND-HALLEUX
50.2544AUDRAN Frederic33FRA1:53:001:53:244:50 12.43155723VIREUX WALLERAND
51.2559GIRARD Pascal39BEL1:53:001:53:274:50 12.43156723
52.2798MELLARD Jean-Emile24BEL1:53:141:53:394:51 12.41158719
53.2521PERRUQUET Xavier31FRA1:53:291:53:554:51 12.38161715HAYBES SUR MEUSE
54.2595BURTEMBOY Gregory29BEL1:54:001:54:044:52 12.36164709
55.2340KRIER Benoit35BEL1:54:071:54:224:52 12.33165708SELANGE
56.2209BAILLY Jean-Luc29BELJUDO CLUB LOUVIÈROIS1:54:441:55:224:55 12.22178695LA LOUVIÈRE
57.695DE DAPPER David33BELKIA LELEUX1:56:111:56:164:57 12.13189676BRUXELLES
58.2369MARELLA Frank35BELTJ1:56:031:56:204:58 12.12190677OHEY
59.2449VERMEERE Didier36BELJ.E.T.1:56:331:56:534:59 12.06195670TUBIZE
60.2484HENDRICK Jean-Michel33BEL1:56:341:56:584:59 12.05197669
61.2597PILETTE Benoit29BEL1:56:521:57:075:00 12.04203663
62.2361LICHTHERTE Eric32BEL1:57:131:57:255:00 12.01210656HULSONNIAUX
63.2360LEVAQUE Sebastien34BEL1:57:201:57:365:01 11.99213654ANDERLECHT
64.2261DE MAEYER Jan38BELHARAKA1:57:231:57:425:01 11.98214653WILRIJK
65.2329JACQUEMIN Benoît37BELC.A.AULNOYE-AYMERIES1:57:411:57:445:01 11.98215650HORNU
66.1502BOUCHET Davy20BELHRC1:57:261:57:545:02 11.96217651IZEL
67.2398PORREZ Jan34BELRUN FOR FUN1:57:471:58:105:02 11.93223645ZOTTEGEM
68.2422SMEULDERS Thomas34BELHARAKA1:58:161:58:355:03 11.89226639NIEL
69.2470RABIN Christophe39BEL1:59:161:59:235:05 11.81229629AUDERGHEM
70.2251CRABBE Fabrice31BEL1:59:321:59:385:06 11.79231625ANHÉE
71.811GIGOT Jacques39BELAXA TEAM1:59:131:59:405:06 11.78232627BRUXELLES
72.266ROUSSEAU David33BELAXA TEAM1:59:141:59:415:06 11.78233627VILLE EN HESBAYE
73.2488DE QUICK David21BEL1:59:351:59:435:06 11.78234623DINANT
74.2391OOSTLAND Stéphane36BEL1:59:421:59:575:07 11.75235621MAZY
75.334SKOWRONSKI Bernard34BEL1:59:442:00:015:07 11.75236621ARSIMONT
76.2326HUYGE Stefan35BELRUN FOR FUN1:59:552:00:125:07 11.73239618ZWALM
77.2602RICHARD Yves37BELFAC1:59:512:00:275:08 11.71243616
78.2390NOEL Thierry39BEL2:00:002:00:305:08 11.70244614NAMUR
79.2319HOEBEKE Wim36BELRUN FOR FUN2:00:162:00:395:09 11.69247611ZWALM
80.2600POUSSEUX Dominique36BEL2:01:292:01:335:11 11.60263592
81.2407RIGUELLE François25BELFLEU2:01:402:01:585:12 11.56269588CORROY-LE-CHÂTEAU
82.2381MOISE Cedric25BELRT BRAIVES2:01:582:02:075:12 11.55270584HANNUT
83.2568DARTOIS Didier38BEL2:01:542:02:105:12 11.54272584
84.446CALIFICE Stephane29BEL2:02:072:02:125:12 11.54273581CLERMONT
85.2514DEPOORTER Chris34BELTORRAC2:02:112:02:235:13 11.52276579HOUTHULST
86.365DESCHUYTENEER Marc27BELTORTUES2:03:022:03:095:15 11.45282569HORRUES
87.2377MESTRER Eric31BEL2:03:282:03:395:16 11.40288562
88.2460JANSSENS Frédéric39BELASPUB2:03:122:03:395:16 11.40289564ANDERLECHT
89.2333JANSSENS Thierry39BELASPUB2:03:132:03:405:16 11.40290563IXELLES
90.2385MULIER Philippe35BEL2:03:302:03:425:16 11.40291560
91.2581RAMELOT Regis25BEL2:03:042:03:445:16 11.40292564
92.2508LIBEREK David29BELSYMBOLE2:03:232:03:445:16 11.40293560
93.2415SCAILLET Vincent37BEL2:03:592:04:165:18 11.35299552HEER
94.2424SOMMELETTE Pascal33BEL2:04:022:04:225:18 11.34302550BRUXELLES
95.1967DEVOS Serge35BEL2:03:592:04:295:18 11.33303550BRUXELLES
96.2598GUHIANO Emmanuel28BEL2:04:042:04:295:18 11.33304549
97.2343KUPPENS Olivier36BEL2:05:172:05:595:22 11.19319531TILFF
98.126CENNE Yves36BEL2:05:172:05:595:22 11.19320531LIEGE
99.2339KRAUTLI Michael37BEL2:06:362:06:475:24 11.12328516GANSHOREN
100.2291FLABAT Didier35BELAXA RUNNING TEAM2:06:532:07:025:25 11.10334510BRUXELLES
101.2437VAN KELST Luc30BELRC NAMUR2:06:302:07:085:25 11.09335513JAMBES
102.2324HUGÉ Thibaut23BEL2:07:262:07:405:26 11.04344501RIXENSART
103.2295GABRIEL Frederic31BELARCH2:07:412:07:555:27 11.02347497ROCHEFORT
104.416DE WILDE Marc38BEL2:08:082:08:485:29 10.95361486
105.2601ECHERNENT Maxime31BEL2:08:492:09:245:31 10.90363480
106.2058STATSYNS J.-Francois39BEL2:10:052:10:265:34 10.81375463COURT SAINT ETIENNE
107.2357LELEU Laurent36BEL2:10:002:10:285:34 10.81376463ANHÉE
108.2453WOIT Jean-Christophe32BEL2:11:012:11:495:37 10.70390448HUY
109.990GODELET Christian36BELFOUL PLAIS2:14:172:14:575:45 10.45423405HUY
110.2587ERNSTER Nicolas33LUXLUXEMBURG2:15:272:15:505:47 10.38432392
111.2530VOYEUX David34BEL2:15:442:15:555:48 10.37433389AISEAU-PRESLES
112.2416SCHEPKENS Vincent39BELSQ ALP SPL BLEGNY2:15:362:16:175:48 10.35435389FENEUR
113.2206ANDRE Valery35BEL2:17:412:17:515:52 10.23455363BRUXELLES
114.2537JANVENIER Vincent33BEL2:20:062:20:185:59 10.05488328
115.2498BERTOLUTTI Damien26BEL2:21:132:22:046:03 9.92500313
116.1411PIQUARD Benoit39BEL2:22:022:22:146:04 9.91502306GENVAL
117.2367MABILLE Joel39BELHAM SUR HEURE2:21:582:22:346:04 9.89506305CHATELINEAU
118.2435VAN DRIESSCHE Benoit28BEL2:22:102:22:396:05 9.88507303NAMUR
119.2585LEHNERT Tommy29BEL2:22:232:22:486:05 9.87508301
120.1709CUGNON Marc39BEL2:22:272:23:136:06 9.85510299FORRIERES
121.2495AZZOUZI Mustapha34BEL2:24:242:24:466:10 9.74527276
122.1785VLAMINCK Thierry36BELUSBWUSBW ROAD2:24:222:25:186:11 9.70529275BRAINE L'ALLEUD
123.2458DURANT Thomas21BEL2:25:212:25:406:12 9.68531267HAVRE
124.438SCHUERMANS Vincent30BEL2:26:462:26:556:16 9.60539253LIEGE
125.2796JUST Eric31BEL2:28:132:28:556:21 9.47553235
126.2218BENABBAS Akli28BEL2:28:432:29:006:21 9.46554231WEMMEL
126.2219BENABBAS Idir30BEL2:28:442:29:006:21 9.46554231ANDERLECHT
128.2500BERTOLLUTI Armand31BEL2:28:222:29:136:21 9.45557232
129.2584CLOSSET Alain39BEL2:31:022:31:566:28 9.28572206
130.2408ROBERTI DE WINGHE Nicolas22BEL2:31:342:32:126:29 9.26573202DION-VALMONT
131.2277DHAENENS Tom35BEL2:31:322:32:256:30 9.25575201TREMELO
132.2270DEMAY Daniel30BEL2:31:332:32:266:30 9.25576200OPHAIN
133.1499GEUSKENS Nicolas38BEL2:33:182:33:506:33 9.17590181BRUXELLES
134.2207ANG DAWA Sherpa24NPLDREAMTEAM2:38:262:38:516:46 8.88614134PEPINGEN
135.701SAUSSEZ Jean-Marie37BELSAINT BERN2:39:212:39:546:49 8.82619125MANAGE
136.2491AIT ABDERRAHMAN Lahoucine34BELST BERNARD2:40:112:40:456:51 8.77623118
137.2418SCHOBBENS Hervé39BEL2:40:492:41:326:53 8.73629110BRUXELLES
138.2567DELAHAUT Thierry36BEL2:42:122:43:026:57 8.6563598
139.1919KOK Ben36NLD2:47:032:47:297:08 8.4264661KAMPEN
140.2411ROYER Patrice38BEL3:00:513:01:147:43 7.786664LIÈGE
141.2562JEIOVAK Dimitri35BEL3:15:263:15:388:20 7.216692
DNF: abandon; DSQ: disqualifié; Vitesse en km/h
Page: [1]